Time;durP1;ratioP1;P1;durP2;ratioP2;P2;SDS_P1;SDS_P2;PMS_P1;PMS_P2;Temp;Humidity;BMP_temperature;BMP_pressure;BME280_temperature;BME280_humidity;BME280_pressure;Samples;Min_cycle;Max_cycle;Signal;HPM_P1;HPM_P2
2024/04/08 00:01:08;;;;;;;13.33;4.37;;;;;;;18.59;79.21;97679.84;4077842;29;20726;-81
2024/04/08 00:03:10;;;;;;;9.87;3.70;;;;;;;18.58;78.38;97682.66;4054597;29;20636;-81
2024/04/08 00:05:13;;;;;;;11.30;4.20;;;;;;;18.61;78.31;97687.63;4061322;29;20644;-81
2024/04/08 00:07:15;;;;;;;11.20;4.17;;;;;;;18.64;78.01;97676.72;4060574;29;20634;-81
2024/04/08 00:09:17;;;;;;;10.30;4.43;;;;;;;18.65;78.45;97686.31;4061373;29;20672;-81
2024/04/08 00:11:19;;;;;;;8.77;4.07;;;;;;;18.68;77.66;97670.13;4075062;29;20743;-81
2024/04/08 00:13:20;;;;;;;10.47;3.50;;;;;;;18.72;75.85;97682.84;4078473;29;20642;-80
2024/04/08 00:15:23;;;;;;;11.43;3.50;;;;;;;18.77;74.52;97675.25;4061329;29;21832;-80
2024/04/08 00:17:24;;;;;;;11.90;3.87;;;;;;;18.84;73.43;97668.31;4074752;29;21212;-82
2024/04/08 00:19:27;;;;;;;13.17;6.20;;;;;;;18.89;73.22;97674.75;4063600;29;20691;-81
2024/04/08 00:21:30;;;;;;;8.93;3.03;;;;;;;18.95;73.16;97683.84;4076374;28;20709;-81
2024/04/08 00:23:32;;;;;;;7.30;3.40;;;;;;;18.99;72.96;97677.25;4075313;29;20623;-82
2024/04/08 00:25:34;;;;;;;12.07;3.37;;;;;;;19.03;73.31;97671.47;4060146;29;20752;-82
2024/04/08 00:27:36;;;;;;;11.00;3.13;;;;;;;19.06;72.63;97668.50;4047426;29;20721;-81
2024/04/08 00:29:38;;;;;;;10.13;3.27;;;;;;;19.08;73.13;97670.97;4074519;29;20652;-82
2024/04/08 00:31:41;;;;;;;10.00;3.23;;;;;;;19.05;73.61;97666.84;4060961;29;20662;-81
2024/04/08 00:33:43;;;;;;;7.77;3.40;;;;;;;18.99;73.97;97656.09;4070285;29;20657;-81
2024/04/08 00:35:46;;;;;;;11.63;3.90;;;;;;;18.93;73.60;97646.19;4043536;29;20634;-81
2024/04/08 00:37:49;;;;;;;8.00;3.20;;;;;;;18.91;73.60;97638.41;4065124;29;20627;-81
2024/04/08 00:39:51;;;;;;;10.03;3.83;;;;;;;18.88;74.00;97630.81;4047862;29;20702;-81
2024/04/08 00:41:53;;;;;;;10.53;3.50;;;;;;;18.83;73.84;97621.72;4077129;29;21243;-82
2024/04/08 00:43:55;;;;;;;11.27;3.50;;;;;;;18.78;73.93;97620.56;4053378;29;20627;-81
2024/04/08 00:45:56;;;;;;;8.33;3.00;;;;;;;18.74;73.61;97609.50;4060846;29;21012;-81
2024/04/08 00:47:59;;;;;;;7.40;3.10;;;;;;;18.73;73.06;97617.59;4060792;29;20615;-82
2024/04/08 00:50:01;;;;;;;6.80;2.87;;;;;;;18.68;73.38;97618.09;4046706;29;20632;-81
2024/04/08 00:52:04;;;;;;;10.23;4.50;;;;;;;18.71;73.19;97622.25;4077173;29;21319;-82
2024/04/08 00:54:07;;;;;;;9.23;2.97;;;;;;;18.67;71.57;97619.13;4048044;29;20636;-81
2024/04/08 00:56:09;;;;;;;7.87;2.90;;;;;;;18.74;72.08;97622.72;4070098;29;20805;-81
2024/04/08 00:58:11;;;;;;;9.10;2.97;;;;;;;18.80;71.54;97635.28;4072798;29;20615;-81
2024/04/08 01:00:14;;;;;;;6.40;2.60;;;;;;;18.83;71.52;97637.59;4071223;29;21223;-81
2024/04/08 01:02:15;;;;;;;7.73;3.43;;;;;;;18.85;71.94;97630.31;4075194;29;20672;-82
2024/04/08 01:04:18;;;;;;;10.47;4.70;;;;;;;18.84;73.24;97636.59;4061388;29;20630;-81
2024/04/08 01:06:19;;;;;;;7.20;3.23;;;;;;;18.73;73.88;97636.91;4048313;29;21194;-81
2024/04/08 01:08:21;;;;;;;7.70;2.90;;;;;;;18.62;73.94;97633.81;4088776;28;20625;-82
2024/04/08 01:10:24;;;;;;;8.10;3.13;;;;;;;18.59;74.73;97624.38;4088172;28;20638;-81
2024/04/08 01:12:26;;;;;;;9.70;3.80;;;;;;;18.57;76.04;97610.50;4071756;28;20658;-82
2024/04/08 01:14:28;;;;;;;10.87;3.40;;;;;;;18.53;76.49;97614.47;4067895;29;20650;-81
2024/04/08 01:16:32;;;;;;;9.70;3.90;;;;;;;18.52;76.42;97612.00;4044129;29;20695;-81
2024/04/08 01:18:33;;;;;;;9.20;3.10;;;;;;;18.51;76.04;97621.75;4057816;29;20743;-81
2024/04/08 01:20:36;;;;;;;7.77;3.43;;;;;;;18.51;75.87;97620.94;4044123;29;20731;-82
2024/04/08 01:22:37;;;;;;;11.07;3.33;;;;;;;18.50;75.54;97617.44;4049340;29;20632;-81
2024/04/08 01:24:41;;;;;;;10.13;3.77;;;;;;;18.52;75.55;97612.00;4060328;29;21029;-81
2024/04/08 01:26:45;;;;;;;8.00;3.17;;;;;;;18.54;75.95;97615.31;4085162;28;20692;-82
2024/04/08 01:28:50;;;;;;;9.23;3.27;;;;;;;18.52;76.29;97615.47;4058953;29;20642;-82
2024/04/08 01:30:52;;;;;;;13.47;3.50;;;;;;;18.50;76.20;97628.00;4078072;29;20629;-81
2024/04/08 01:32:55;;;;;;;9.20;3.80;;;;;;;18.48;76.47;97621.25;4042781;29;21576;-81
2024/04/08 01:34:56;;;;;;;11.63;3.70;;;;;;;18.43;77.15;97613.81;4075527;29;20658;-82
2024/04/08 01:36:58;;;;;;;11.70;4.10;;;;;;;18.39;77.70;97608.19;4049479;29;20994;-81
2024/04/08 01:39:00;;;;;;;11.80;4.03;;;;;;;18.34;77.33;97606.03;4091072;28;21264;-82
2024/04/08 01:41:04;;;;;;;10.00;4.27;;;;;;;18.31;77.82;97611.69;4055016;29;20631;-80
2024/04/08 01:43:06;;;;;;;9.80;4.53;;;;;;;18.29;78.37;97607.53;4059506;29;20626;-81
2024/04/08 01:45:09;;;;;;;8.87;4.23;;;;;;;18.24;78.77;97607.22;4055105;29;21188;-81
2024/04/08 01:47:11;;;;;;;9.10;3.90;;;;;;;18.21;78.90;97599.63;4061218;29;20634;-81
2024/04/08 01:49:13;;;;;;;8.07;4.53;;;;;;;18.15;78.83;97587.88;4054792;29;20629;-81
2024/04/08 01:51:15;;;;;;;10.03;4.00;;;;;;;18.13;78.47;97594.31;4058735;29;20646;-82
2024/04/08 01:53:17;;;;;;;11.80;5.20;;;;;;;18.12;78.66;97595.28;4059973;29;20623;-81
2024/04/08 01:55:18;;;;;;;12.60;4.90;;;;;;;18.10;78.80;97594.59;4056036;29;20635;-81
2024/04/08 01:57:22;;;;;;;13.50;4.67;;;;;;;18.07;78.98;97600.19;4075339;29;20677;-81
2024/04/08 01:59:23;;;;;;;8.53;4.27;;;;;;;18.05;79.40;97586.34;4074572;29;20743;-80
2024/04/08 02:01:25;;;;;;;10.07;4.03;;;;;;;18.04;79.58;97592.59;4045225;29;20638;-81
2024/04/08 02:03:26;;;;;;;11.97;4.47;;;;;;;18.01;79.63;97600.84;4075900;29;21273;-81
2024/04/08 02:05:29;;;;;;;7.43;4.43;;;;;;;17.99;79.39;97598.38;4059625;29;20641;-82
2024/04/08 02:07:30;;;;;;;8.20;4.17;;;;;;;17.98;79.52;97604.66;4056650;29;20728;-81
2024/04/08 02:09:32;;;;;;;9.87;4.77;;;;;;;17.97;79.38;97600.34;4069558;29;21202;-81
2024/04/08 02:11:34;;;;;;;13.67;5.30;;;;;;;17.93;79.44;97600.84;4060308;29;21216;-81
2024/04/08 02:13:37;;;;;;;8.00;4.00;;;;;;;17.92;80.17;97615.03;4047123;29;21221;-81
2024/04/08 02:15:39;;;;;;;13.40;4.43;;;;;;;17.89;80.52;97609.25;4046847;29;20686;-82
2024/04/08 02:17:42;;;;;;;15.07;5.27;;;;;;;17.85;80.32;97616.66;4074836;29;20637;-82
2024/04/08 02:19:43;;;;;;;13.10;4.87;;;;;;;17.81;80.48;97610.03;4055440;29;20676;-81
2024/04/08 02:21:45;;;;;;;13.03;4.77;;;;;;;17.78;81.92;97609.53;4041090;29;20671;-81
2024/04/08 02:23:49;;;;;;;8.07;4.60;;;;;;;17.74;81.75;97606.41;4063866;29;20642;-81
2024/04/08 02:25:50;;;;;;;9.50;4.77;;;;;;;17.74;82.41;97598.50;4088472;28;20663;-81
2024/04/08 02:27:52;;;;;;;9.40;5.10;;;;;;;17.73;81.92;97603.94;4059311;29;20642;-80
2024/04/08 02:29:57;;;;;;;10.20;4.90;;;;;;;17.69;81.63;97600.78;4049799;29;20646;-81
2024/04/08 02:31:59;;;;;;;10.10;5.50;;;;;;;17.66;81.32;97603.72;4074109;29;20684;-81
2024/04/08 02:34:01;;;;;;;12.00;5.30;;;;;;;17.65;81.68;97614.44;4060981;29;20625;-81
2024/04/08 02:36:02;;;;;;;8.40;4.43;;;;;;;17.61;81.39;97619.22;4066117;29;20637;-81
2024/04/08 02:38:05;;;;;;;15.50;5.53;;;;;;;17.59;81.43;97621.19;4046606;29;20671;-81
2024/04/08 02:40:10;;;;;;;10.27;4.90;;;;;;;17.57;82.48;97622.31;4078061;29;20641;-81
2024/04/08 02:42:12;;;;;;;9.90;5.30;;;;;;;17.54;82.28;97620.81;4060794;29;20691;-80
2024/04/08 02:44:14;;;;;;;9.70;4.63;;;;;;;17.50;82.56;97627.41;4072439;29;20646;-81
2024/04/08 02:46:18;;;;;;;7.13;4.57;;;;;;;17.50;82.33;97621.34;4061993;29;20636;-81
2024/04/08 02:48:20;;;;;;;7.23;4.30;;;;;;;17.46;82.55;97628.72;4057678;29;20708;-81
2024/04/08 02:50:22;;;;;;;13.00;5.17;;;;;;;17.43;82.44;97630.03;4062652;29;20675;-81
2024/04/08 02:52:24;;;;;;;10.17;4.50;;;;;;;17.40;84.33;97631.16;4072130;29;20665;-81
2024/04/08 02:54:30;;;;;;;12.10;5.10;;;;;;;17.38;84.14;97632.28;4079533;29;21328;-81
2024/04/08 02:56:32;;;;;;;10.40;5.00;;;;;;;17.35;83.26;97628.19;4074165;29;20662;-81
2024/04/08 02:58:33;;;;;;;9.80;4.73;;;;;;;17.35;83.78;97622.91;4078151;29;20643;-80
2024/04/08 03:00:38;;;;;;;10.63;4.60;;;;;;;17.34;84.26;97621.25;4055060;29;20637;-81
2024/04/08 03:02:43;;;;;;;10.63;4.30;;;;;;;17.33;82.83;97613.50;4064269;29;21103;-81
2024/04/08 03:04:46;;;;;;;8.37;3.90;;;;;;;17.32;81.84;97611.81;4062154;29;21078;-82
2024/04/08 03:06:47;;;;;;;7.87;4.30;;;;;;;17.31;83.11;97616.28;4061284;29;21256;-81
2024/04/08 03:08:50;;;;;;;8.33;3.90;;;;;;;17.30;81.28;97619.91;4059715;29;20744;-81
2024/04/08 03:10:57;;;;;;;10.40;4.03;;;;;;;17.30;81.83;97625.16;4078440;29;20655;-81
2024/04/08 03:13:00;;;;;;;11.70;4.10;;;;;;;17.32;82.81;97627.66;4046734;29;20722;-81
2024/04/08 03:15:02;;;;;;;10.37;5.30;;;;;;;17.28;82.48;97623.69;4063170;29;20663;-80
2024/04/08 03:17:09;;;;;;;12.33;3.97;;;;;;;17.25;83.06;97634.53;4091496;28;20627;-81
2024/04/08 03:19:13;;;;;;;10.03;4.93;;;;;;;17.24;83.05;97635.53;4063834;29;20737;-81
2024/04/08 03:21:15;;;;;;;7.33;4.20;;;;;;;17.19;82.99;97632.50;4061518;29;20654;-80
2024/04/08 03:23:20;;;;;;;10.73;3.93;;;;;;;17.18;83.63;97636.13;4046183;29;20635;-81
2024/04/08 03:25:23;;;;;;;8.63;4.17;;;;;;;17.19;81.71;97637.78;4058670;29;20642;-81
2024/04/08 03:27:24;;;;;;;8.47;4.60;;;;;;;17.18;82.56;97638.75;4076898;29;20672;-81
2024/04/08 03:29:26;;;;;;;11.80;4.30;;;;;;;17.16;82.98;97638.09;4060372;29;20620;-81
2024/04/08 03:31:28;;;;;;;8.03;4.10;;;;;;;17.14;83.07;97640.06;4080366;29;20654;-81
2024/04/08 03:33:31;;;;;;;7.20;4.43;;;;;;;17.12;83.84;97639.38;4061657;29;20720;-81
2024/04/08 03:35:33;;;;;;;7.63;4.50;;;;;;;17.11;82.28;97645.66;4078435;29;20636;-81
2024/04/08 03:37:36;;;;;;;10.90;4.20;;;;;;;17.08;83.26;97641.50;4078044;29;21143;-82
2024/04/08 03:41:48;;;;;;;10.63;4.50;;;;;;;17.00;82.95;97648.50;4528776;25;20720;-82
2024/04/08 03:43:54;;;;;;;10.90;4.00;;;;;;;16.90;83.43;97641.69;4517765;26;20575;-82
2024/04/08 03:45:57;;;;;;;9.83;4.20;;;;;;;16.85;83.78;97644.78;4519386;26;20933;-82
2024/04/08 03:48:03;;;;;;;13.60;4.50;;;;;;;16.79;84.01;97648.03;4519165;26;20613;-83
2024/04/08 03:50:07;;;;;;;8.97;4.40;;;;;;;16.74;84.84;97645.03;4518063;26;20568;-82
2024/04/08 03:52:13;;;;;;;11.70;4.40;;;;;;;16.73;85.05;97651.31;4518094;26;20684;-82
2024/04/08 03:54:18;;;;;;;7.33;4.33;;;;;;;16.73;84.81;97661.84;4485527;26;20609;-82
2024/04/08 03:56:25;;;;;;;10.07;4.30;;;;;;;16.70;85.04;97662.16;4515911;26;25343;-83
2024/04/08 03:58:31;;;;;;;10.97;4.37;;;;;;;16.72;84.91;97672.53;4519316;26;20722;-82
2024/04/08 04:00:37;;;;;;;9.53;3.90;;;;;;;16.69;84.03;97675.47;4520363;26;20578;-83
2024/04/08 04:02:41;;;;;;;10.17;4.20;;;;;;;16.71;83.79;97676.94;4523418;26;20573;-82
2024/04/08 04:04:47;;;;;;;9.67;4.30;;;;;;;16.75;83.69;97670.41;4519500;26;20572;-83
2024/04/08 04:06:50;;;;;;;7.50;3.73;;;;;;;16.76;83.94;97681.75;4521791;26;20556;-83
2024/04/08 04:08:56;;;;;;;12.37;4.33;;;;;;;16.71;83.75;97681.41;4510137;26;20577;-83
2024/04/08 04:10:59;;;;;;;7.90;4.37;;;;;;;16.66;84.22;97678.41;4520255;26;21198;-82
2024/04/08 04:13:05;;;;;;;8.50;4.33;;;;;;;16.62;84.69;97688.41;4522491;26;20568;-82
2024/04/08 04:15:12;;;;;;;11.43;4.93;;;;;;;16.58;84.54;97683.59;4519687;26;20576;-83
2024/04/08 04:17:18;;;;;;;6.97;4.07;;;;;;;16.53;85.04;97677.94;4517590;26;20610;-82
2024/04/08 04:19:20;;;;;;;7.70;4.67;;;;;;;16.42;85.35;97675.56;4513058;26;21285;-82
2024/04/08 04:21:27;;;;;;;11.43;4.43;;;;;;;16.35;85.04;97673.66;4541528;26;20569;-82
2024/04/08 04:23:29;;;;;;;8.17;4.47;;;;;;;16.27;84.93;97666.53;4520821;26;20625;-82
2024/04/08 04:25:35;;;;;;;10.30;4.70;;;;;;;16.23;85.69;97661.72;4513016;26;20572;-82
2024/04/08 04:27:38;;;;;;;11.10;5.10;;;;;;;16.22;85.19;97673.19;4519322;26;21068;-82
2024/04/08 04:29:43;;;;;;;16.60;5.30;;;;;;;16.20;85.68;97675.13;4520668;25;20554;-83
2024/04/08 04:31:49;;;;;;;10.20;4.70;;;;;;;16.18;85.80;97675.28;4511495;26;20574;-84
2024/04/08 04:33:57;;;;;;;9.60;4.83;;;;;;;16.18;85.92;97672.66;4517444;26;23302;-84
2024/04/08 04:36:01;;;;;;;13.10;5.17;;;;;;;16.17;86.13;97676.25;4512273;26;20603;-83
2024/04/08 04:38:07;;;;;;;11.50;4.60;;;;;;;16.15;86.34;97685.28;4520895;26;20626;-82
2024/04/08 04:40:11;;;;;;;11.40;5.00;;;;;;;16.10;86.29;97680.47;4487036;26;20581;-83
2024/04/08 04:42:17;;;;;;;10.20;4.67;;;;;;;16.05;86.63;97681.88;4507905;26;20641;-84
2024/04/08 04:44:20;;;;;;;12.47;4.70;;;;;;;16.02;86.83;97683.97;4493859;26;20564;-83
2024/04/08 04:46:26;;;;;;;13.33;5.37;;;;;;;15.97;87.29;97681.78;4516609;26;20556;-83
2024/04/08 04:48:32;;;;;;;14.57;4.57;;;;;;;15.92;87.47;97678.78;4490611;26;20569;-84
2024/04/08 04:50:37;;;;;;;8.50;4.90;;;;;;;15.89;87.39;97683.50;4514070;26;20569;-81
2024/04/08 04:52:40;;;;;;;9.53;5.40;;;;;;;15.84;87.44;97678.69;4473946;26;20618;-83
2024/04/08 04:54:46;;;;;;;14.10;5.20;;;;;;;15.82;87.69;97672.75;4507885;26;20608;-84
2024/04/08 04:56:49;;;;;;;10.63;4.83;;;;;;;15.79;87.64;97670.41;4497926;26;20558;-83
2024/04/08 04:58:55;;;;;;;9.20;4.57;;;;;;;15.79;87.49;97672.22;4502465;26;20668;-81
2024/04/08 05:00:58;;;;;;;11.80;5.70;;;;;;;15.76;87.94;97678.59;4500433;26;20634;-81
2024/04/08 05:03:06;;;;;;;11.60;5.60;;;;;;;15.76;88.47;97681.22;4497158;26;21144;-82
2024/04/08 05:05:12;;;;;;;11.83;6.27;;;;;;;15.77;88.24;97682.03;4499195;26;21225;-83
2024/04/08 05:07:17;;;;;;;14.33;6.53;;;;;;;15.76;88.15;97686.47;4465807;26;20562;-83
2024/04/08 05:09:20;;;;;;;13.43;7.53;;;;;;;15.77;88.07;97690.78;4503668;26;20632;-83
2024/04/08 05:11:26;;;;;;;11.97;6.20;;;;;;;15.77;88.37;97687.28;4502077;26;20617;-82
2024/04/08 05:13:29;;;;;;;12.37;6.13;;;;;;;15.77;88.25;97689.91;4479120;26;20668;-82
2024/04/08 05:15:35;;;;;;;10.13;6.30;;;;;;;15.77;88.46;97695.19;4501434;26;20553;-82
2024/04/08 05:17:38;;;;;;;13.57;6.70;;;;;;;15.76;88.76;97698.81;4496669;26;21734;-82
2024/04/08 05:19:44;;;;;;;14.50;7.70;;;;;;;15.77;88.72;97693.41;4496407;26;21097;-82
2024/04/08 05:21:50;;;;;;;15.23;7.10;;;;;;;15.80;88.53;97693.13;4492086;26;20581;-82
2024/04/08 05:23:56;;;;;;;12.43;8.47;;;;;;;15.82;88.61;97698.22;4466515;26;20686;-81
2024/04/08 05:26:00;;;;;;;16.20;8.30;;;;;;;15.85;88.98;97701.38;4528726;26;20943;-81
2024/04/08 05:28:07;;;;;;;19.07;7.37;;;;;;;15.87;89.16;97707.31;4531213;26;20575;-81
2024/04/08 05:30:10;;;;;;;14.87;6.60;;;;;;;15.90;88.75;97707.03;4477367;26;20997;-81
2024/04/08 05:32:16;;;;;;;15.07;6.47;;;;;;;15.92;88.95;97723.50;4505644;26;20596;-82
2024/04/08 05:34:19;;;;;;;18.20;6.17;;;;;;;15.92;88.44;97723.50;4501603;26;21153;-82
2024/04/08 05:36:25;;;;;;;16.60;6.23;;;;;;;15.94;88.53;97721.56;4508561;26;20560;-82
2024/04/08 05:38:31;;;;;;;14.23;5.80;;;;;;;15.99;88.74;97726.38;4499348;26;20605;-81
2024/04/08 05:40:37;;;;;;;9.70;4.90;;;;;;;16.02;88.39;97722.44;4510492;26;20636;-82
2024/04/08 05:42:41;;;;;;;8.20;5.67;;;;;;;16.05;88.86;97727.41;4525078;26;20603;-81
2024/04/08 05:44:46;;;;;;;12.90;6.90;;;;;;;16.09;88.35;97730.59;4497005;26;20796;-81
2024/04/08 05:46:50;;;;;;;9.70;5.80;;;;;;;16.13;88.16;97729.31;4498288;26;20557;-82
2024/04/08 05:48:55;;;;;;;8.97;5.17;;;;;;;16.16;88.70;97729.88;4526897;26;20564;-81
2024/04/08 05:50:58;;;;;;;13.93;5.53;;;;;;;16.18;88.53;97727.09;4530949;26;20557;-82
2024/04/08 05:53:04;;;;;;;12.20;5.93;;;;;;;16.24;88.86;97729.97;4531032;26;20609;-82
2024/04/08 05:55:10;;;;;;;14.20;6.07;;;;;;;16.30;88.18;97732.03;4486070;26;20900;-82
2024/04/08 05:57:15;;;;;;;9.80;5.20;;;;;;;16.38;88.16;97728.66;4525684;26;22065;-81
2024/04/08 05:59:19;;;;;;;13.97;6.30;;;;;;;16.45;88.54;97733.19;4504025;26;21219;-81
2024/04/08 06:01:25;;;;;;;9.40;5.93;;;;;;;16.52;87.62;97732.44;4501149;26;20620;-81
2024/04/08 06:03:28;;;;;;;10.37;5.57;;;;;;;16.64;87.25;97725.97;4519558;26;20569;-82
2024/04/08 06:05:34;;;;;;;12.27;4.80;;;;;;;16.73;86.50;97725.06;4494633;26;21225;-82
2024/04/08 06:07:37;;;;;;;11.57;5.57;;;;;;;16.84;86.05;97722.19;4534131;26;20561;-82
2024/04/08 06:09:44;;;;;;;15.40;5.03;;;;;;;16.91;85.23;97722.41;4506972;26;20640;-82
2024/04/08 06:11:49;;;;;;;13.10;5.70;;;;;;;16.96;85.19;97723.59;4493524;26;20618;-81
2024/04/08 06:13:55;;;;;;;10.67;4.73;;;;;;;17.03;84.58;97717.56;4461586;26;20558;-81
2024/04/08 06:15:58;;;;;;;11.50;5.20;;;;;;;17.07;84.17;97718.09;4496162;26;20558;-82
2024/04/08 06:18:03;;;;;;;18.13;5.47;;;;;;;17.11;83.82;97704.44;4518255;26;20602;-82
2024/04/08 06:20:07;;;;;;;15.83;5.20;;;;;;;17.22;84.67;97706.03;4504948;26;20640;-82
2024/04/08 06:22:13;;;;;;;11.90;5.47;;;;;;;17.30;84.02;97712.16;4525633;26;20566;-81
2024/04/08 06:24:16;;;;;;;12.23;4.97;;;;;;;17.39;84.26;97718.34;4502089;26;20579;-82
2024/04/08 06:26:22;;;;;;;10.00;4.90;;;;;;;17.47;84.02;97709.50;4477067;26;20652;-82
2024/04/08 06:28:28;;;;;;;11.47;5.50;;;;;;;17.54;84.22;97714.97;4498112;26;20615;-81
2024/04/08 06:30:33;;;;;;;12.23;5.23;;;;;;;17.63;84.24;97730.66;4493692;26;21053;-81
2024/04/08 06:32:36;;;;;;;17.30;5.77;;;;;;;17.70;84.63;97720.34;4479690;26;20633;-82
2024/04/08 06:34:42;;;;;;;8.73;5.10;;;;;;;17.80;83.42;97718.38;4479816;26;20562;-82
2024/04/08 06:36:45;;;;;;;10.67;4.93;;;;;;;17.90;83.51;97727.84;4476218;26;20608;-82
2024/04/08 06:38:51;;;;;;;11.07;4.83;;;;;;;18.01;83.99;97730.19;4532408;26;20573;-81
2024/04/08 06:40:54;;;;;;;9.17;5.10;;;;;;;18.13;82.05;97723.66;4483789;26;21214;-82
2024/04/08 06:42:59;;;;;;;9.60;4.93;;;;;;;18.25;82.48;97728.50;4502477;26;21155;-82
2024/04/08 06:45:05;;;;;;;9.20;6.37;;;;;;;18.36;81.80;97727.34;4499655;26;20571;-82
2024/04/08 06:47:11;;;;;;;12.77;4.93;;;;;;;18.45;81.44;97725.41;4534210;26;20569;-82
2024/04/08 06:49:14;;;;;;;15.77;5.20;;;;;;;18.55;81.39;97728.75;4498553;26;20616;-82
2024/04/08 06:51:19;;;;;;;11.93;5.20;;;;;;;18.69;81.50;97730.75;4468105;26;20573;-82
2024/04/08 06:53:23;;;;;;;10.10;5.70;;;;;;;18.80;80.71;97734.88;4503048;26;20558;-82
2024/04/08 06:55:29;;;;;;;12.57;5.30;;;;;;;18.92;80.81;97726.47;4504867;26;20562;-81
2024/04/08 06:57:32;;;;;;;13.30;4.97;;;;;;;19.04;79.20;97725.19;4483552;26;20935;-82
2024/04/08 06:59:39;;;;;;;9.27;4.97;;;;;;;19.15;79.31;97719.53;4475527;26;20569;-82
2024/04/08 07:01:44;;;;;;;13.10;5.23;;;;;;;19.30;79.33;97726.63;4497547;26;20619;-81
2024/04/08 07:03:50;;;;;;;10.10;5.07;;;;;;;19.43;79.43;97727.78;4520780;26;20701;-81
2024/04/08 07:05:52;;;;;;;10.20;5.73;;;;;;;19.55;78.07;97723.78;4475431;26;21878;-81
2024/04/08 07:07:58;;;;;;;13.47;5.63;;;;;;;19.72;78.47;97721.94;4500557;26;20557;-81
2024/04/08 07:10:01;;;;;;;8.33;4.40;;;;;;;19.86;77.28;97728.22;4529565;26;20536;-82
2024/04/08 07:12:07;;;;;;;11.70;5.50;;;;;;;19.88;76.49;97734.16;4473252;26;21161;-81
2024/04/08 07:14:10;;;;;;;9.50;5.10;;;;;;;19.94;76.94;97724.72;4505478;26;20560;-82
2024/04/08 07:16:16;;;;;;;9.50;5.00;;;;;;;20.08;76.45;97724.78;4493777;26;21161;-82
2024/04/08 07:18:23;;;;;;;10.03;4.70;;;;;;;20.20;75.64;97725.25;4503895;26;21035;-82
2024/04/08 07:20:30;;;;;;;9.93;4.23;;;;;;;20.33;74.32;97729.81;4499660;26;21101;-82
2024/04/08 07:22:32;;;;;;;12.30;4.90;;;;;;;20.47;74.18;97729.06;4516595;26;21147;-82
2024/04/08 07:24:40;;;;;;;10.00;4.37;;;;;;;20.59;73.88;97729.50;4501280;26;20924;-82
2024/04/08 07:26:45;;;;;;;10.03;4.43;;;;;;;20.68;73.26;97721.34;4505171;26;20651;-82
2024/04/08 07:28:51;;;;;;;13.80;4.67;;;;;;;20.80;73.13;97729.75;4504166;26;21192;-82
2024/04/08 07:30:54;;;;;;;12.67;4.43;;;;;;;20.94;74.36;97719.16;4492950;26;20565;-82
2024/04/08 07:33:00;;;;;;;8.50;4.33;;;;;;;21.03;72.93;97720.75;4458482;26;20591;-82
2024/04/08 07:35:07;;;;;;;8.77;4.20;;;;;;;21.07;72.86;97712.28;4482162;26;21025;-81
2024/04/08 07:37:13;;;;;;;10.40;4.67;;;;;;;21.21;73.02;97708.00;4492458;26;20562;-81
2024/04/08 07:39:15;;;;;;;12.70;4.20;;;;;;;21.34;74.05;97701.91;4525767;26;20568;-82
2024/04/08 07:41:21;;;;;;;10.37;4.30;;;;;;;21.43;71.51;97708.78;4491926;26;20577;-82
2024/04/08 07:43:24;;;;;;;13.03;4.43;;;;;;;21.62;72.35;97710.97;4505939;26;20546;-81
2024/04/08 07:45:30;;;;;;;10.97;4.60;;;;;;;21.75;71.12;97715.63;4479024;26;20681;-82
2024/04/08 07:47:33;;;;;;;15.27;4.83;;;;;;;21.89;71.04;97715.63;4465536;26;20729;-82
2024/04/08 07:49:40;;;;;;;10.83;4.60;;;;;;;22.01;70.55;97708.81;4526878;26;20933;-82
2024/04/08 07:51:47;;;;;;;10.33;3.90;;;;;;;22.15;69.59;97708.00;4499400;26;20643;-81
2024/04/08 07:53:52;;;;;;;18.93;5.07;;;;;;;;;;4503058;26;20622;-81
2024/04/08 07:55:55;;;;;;;10.07;4.10;;;;;;;22.48;70.69;97718.88;4493314;26;20569;-81
2024/04/08 07:58:00;;;;;;;13.97;4.30;;;;;;;22.66;70.68;97708.66;4504877;26;21141;-82
2024/04/08 08:00:07;;;;;;;15.77;4.67;;;;;;;22.89;73.93;97709.28;4504824;26;20562;-82
2024/04/08 08:02:16;;;;;;;12.67;4.40;;;;;;;23.09;71.98;97710.31;4533805;26;20540;-81
2024/04/08 08:04:20;;;;;;;9.70;4.13;;;;;;;23.24;72.15;97703.91;4531410;26;20649;-82
2024/04/08 08:06:26;;;;;;;9.97;4.17;;;;;;;23.38;72.45;97709.16;4505294;26;20620;-82
2024/04/08 08:08:34;;;;;;;10.03;4.47;;;;;;;23.55;72.69;97718.50;4472861;26;20576;-82
2024/04/08 08:10:37;;;;;;;11.00;4.00;;;;;;;23.69;70.95;97721.09;4522074;26;20576;-82
2024/04/08 08:12:43;;;;;;;8.90;3.37;;;;;;;23.86;70.98;97709.13;4533187;26;20579;-82
2024/04/08 08:14:46;;;;;;;12.77;4.23;;;;;;;24.00;70.20;97705.50;4500732;26;21201;-87
2024/04/08 08:16:51;;;;;;;7.93;4.17;;;;;;;24.15;72.56;97708.84;4500056;26;20568;-86
2024/04/08 08:18:55;;;;;;;8.30;4.40;;;;;;;24.31;68.09;97701.34;4500756;26;20689;-87
2024/04/08 08:21:02;;;;;;;13.07;4.50;;;;;;;24.47;69.09;97701.00;4501734;26;20619;-83
2024/04/08 08:23:05;;;;;;;11.60;3.70;;;;;;;24.63;67.15;97700.66;4531198;26;21172;-82
2024/04/08 08:25:13;;;;;;;6.83;3.20;;;;;;;24.75;67.00;97713.22;4531984;26;20558;-81
2024/04/08 08:27:16;;;;;;;9.47;3.50;;;;;;;24.91;69.57;97717.34;4505434;26;20571;-81
2024/04/08 08:29:22;;;;;;;18.43;12.40;;;;;;;25.06;70.14;97715.34;4466982;26;20752;-81
2024/04/08 08:31:25;;;;;;;8.30;3.53;;;;;;;25.17;64.64;97716.41;4528205;26;20543;-82
2024/04/08 08:33:30;;;;;;;12.47;3.40;;;;;;;25.28;65.21;97705.09;4499438;26;20596;-82
2024/04/08 08:35:35;;;;;;;8.27;2.80;;;;;;;25.41;61.26;97704.25;4502317;26;20669;-80
2024/04/08 08:37:41;;;;;;;8.60;2.93;;;;;;;25.55;61.71;97706.72;4479563;26;20560;-82
2024/04/08 08:39:50;;;;;;;10.53;3.13;;;;;;;25.69;63.12;97716.41;4533340;26;20561;-81
2024/04/08 08:41:59;;;;;;;9.70;3.03;;;;;;;25.84;63.68;97711.66;4502107;26;20608;-82
2024/04/08 08:44:02;;;;;;;10.20;2.90;;;;;;;25.95;59.01;97705.66;4496748;26;20614;-81
2024/04/08 08:46:08;;;;;;;6.43;2.50;;;;;;;26.05;60.41;97701.53;4498139;26;20631;-82
2024/04/08 08:48:12;;;;;;;11.77;2.97;;;;;;;26.15;60.41;97700.06;4533384;26;20612;-81
2024/04/08 08:50:17;;;;;;;9.87;3.00;;;;;;;26.25;57.06;97702.28;4466768;26;21190;-81
2024/04/08 08:52:21;;;;;;;11.63;3.03;;;;;;;26.32;55.64;97703.94;4494845;26;20679;-81
2024/04/08 08:54:28;;;;;;;6.23;2.67;;;;;;;26.41;55.22;97699.97;4472564;26;20609;-81
2024/04/08 08:56:32;;;;;;;5.43;2.70;;;;;;;26.49;55.51;97699.75;4535163;26;20570;-82
2024/04/08 08:58:40;;;;;;;8.37;2.07;;;;;;;26.57;54.01;97702.19;4497434;26;20648;-80
2024/04/08 09:00:44;;;;;;;6.27;2.10;;;;;;;26.63;52.44;97693.31;4486534;26;20551;-82
2024/04/08 09:02:51;;;;;;;7.17;2.30;;;;;;;26.69;52.74;97681.75;4538184;26;20625;-82
2024/04/08 09:04:54;;;;;;;8.70;2.77;;;;;;;26.77;54.26;97676.13;4503743;26;20617;-82
2024/04/08 09:06:59;;;;;;;7.13;2.17;;;;;;;26.79;53.03;97674.03;4502459;26;20624;-82
2024/04/08 09:09:04;;;;;;;6.37;2.47;;;;;;;26.85;52.83;97668.66;4497185;26;20576;-82
2024/04/08 09:11:10;;;;;;;6.37;2.33;;;;;;;26.93;54.08;97672.94;4504114;26;20577;-82
2024/04/08 09:13:19;;;;;;;7.43;2.40;;;;;;;26.99;53.60;97674.75;4532438;26;20558;-81
2024/04/08 09:15:28;;;;;;;6.43;2.13;;;;;;;27.07;54.78;97665.41;4504753;26;20545;-81
2024/04/08 09:17:31;;;;;;;6.40;2.57;;;;;;;27.13;53.73;97666.41;4529810;26;20694;-82
2024/04/08 09:19:38;;;;;;;7.70;2.47;;;;;;;27.17;53.49;97667.63;4509614;26;20552;-82
2024/04/08 09:21:40;;;;;;;24.13;5.10;;;;;;;27.23;53.21;97658.72;4492916;26;21065;-81
2024/04/08 09:23:50;;;;;;;8.77;2.23;;;;;;;27.28;53.45;97657.00;4460985;26;20614;-82
2024/04/08 09:25:56;;;;;;;7.10;2.57;;;;;;;27.31;53.06;97653.09;4524362;26;21640;-82
2024/04/08 09:28:02;;;;;;;7.93;2.97;;;;;;;27.36;52.89;97654.06;4502147;26;20600;-81
2024/04/08 09:30:06;;;;;;;6.30;2.40;;;;;;;27.42;53.93;97645.13;4536162;26;20558;-81
2024/04/08 09:32:15;;;;;;;7.60;3.50;;;;;;;27.50;53.98;97652.09;4532111;26;20709;-82
2024/04/08 09:34:18;;;;;;;6.97;2.50;;;;;;;27.54;52.96;97654.13;4510434;26;20604;-82
2024/04/08 09:36:26;;;;;;;7.17;2.37;;;;;;;27.58;54.26;97658.00;4497369;26;20556;-82
2024/04/08 09:38:29;;;;;;;12.90;2.60;;;;;;;27.61;53.10;97654.91;4519148;26;20647;-81
2024/04/08 09:40:35;;;;;;;8.45;2.20;;;;;;;27.61;51.40;97650.34;4483407;26;20485;-82
2024/04/08 09:42:38;;;;;;;7.93;2.43;;;;;;;27.70;53.25;97664.28;4503291;26;20305;-81